Time;durP1;ratioP1;P1;durP2;ratioP2;P2;SDS_P1;SDS_P2;PMS_P1;PMS_P2;Temp;Humidity;BMP_temperature;BMP_pressure;BME280_temperature;BME280_humidity;BME280_pressure;Samples;Min_cycle;Max_cycle;Signal;HPM_P1;HPM_P2
2022/10/10 00:02:16;;;;;;;5.50;3.07;;;;;;;;;;5053580;28;20174;-69
2022/10/10 00:04:43;;;;;;;5.87;2.93;;;;;;;;;;5035428;28;20202;-68
2022/10/10 00:07:09;;;;;;;5.40;3.33;;;;;;;;;;5053369;28;20171;-68
2022/10/10 00:09:35;;;;;;;8.93;3.57;;;;;;;;;;5034492;28;20236;-68
2022/10/10 00:12:01;;;;;;;9.83;3.23;;;;;;;;;;5035280;28;20178;-69
2022/10/10 00:14:27;;;;;;;5.77;3.00;;;;;;;;;;5035484;28;20202;-69
2022/10/10 00:16:53;;;;;;;7.63;3.67;;;;;;;;;;5053191;28;20182;-68
2022/10/10 00:19:19;;;;;;;5.13;3.27;;;;;;;;;;5053186;28;20185;-68
2022/10/10 00:21:45;;;;;;;4.83;3.10;;;;;;;;;;5053464;28;20178;-70
2022/10/10 00:24:10;;;;;;;7.60;3.17;;;;;;;;;;5053301;28;20190;-68
2022/10/10 00:26:36;;;;;;;5.73;3.00;;;;;;;;;;5035303;28;20269;-69
2022/10/10 00:29:03;;;;;;;3.40;2.93;;;;;;;;;;5035291;28;20197;-70
2022/10/10 00:31:28;;;;;;;5.43;3.10;;;;;;;;;;5053228;28;20183;-68
2022/10/10 00:33:54;;;;;;;5.07;2.90;;;;;;;;;;5035213;28;20204;-69
2022/10/10 00:36:20;;;;;;;5.70;3.00;;;;;;;;;;5035254;28;20178;-69
2022/10/10 00:38:47;;;;;;;3.70;3.07;;;;;;;;;;5035183;28;20183;-70
2022/10/10 00:41:13;;;;;;;6.17;3.30;;;;;;;;;;5034971;28;20297;-68
2022/10/10 00:43:39;;;;;;;6.93;3.10;;;;;;;;;;5053090;28;20233;-68
2022/10/10 00:46:05;;;;;;;4.57;2.70;;;;;;;;;;5053014;28;20201;-71
2022/10/10 00:48:35;;;;;;;4.17;3.07;;;;;;;;;;5053229;28;20690;-69
2022/10/10 00:51:02;;;;;;;6.47;2.80;;;;;;;;;;5035201;28;20178;-67
2022/10/10 00:53:32;;;;;;;5.80;2.83;;;;;;;;;;5053275;28;20639;-68
2022/10/10 00:55:59;;;;;;;4.43;2.80;;;;;;;;;;5053059;28;20654;-67
2022/10/10 00:58:25;;;;;;;3.63;2.83;;;;;;;;;;5052790;28;20174;-67
2022/10/10 01:00:51;;;;;;;4.80;3.20;;;;;;;;;;5052773;28;20202;-67
2022/10/10 01:03:17;;;;;;;6.93;3.10;;;;;;;;;;5053164;28;20201;-68
2022/10/10 01:05:45;;;;;;;5.90;4.00;;;;;;;;;;5052798;28;20171;-67
2022/10/10 01:08:11;;;;;;;6.67;4.27;;;;;;;;;;5053210;28;20174;-68
2022/10/10 01:11:03;;;;;;;6.27;3.83;;;;;;;;;;5035384;28;20708;-68
2022/10/10 01:13:34;;;;;;;8.57;4.33;;;;;;;;;;5022846;28;20218;-70
2022/10/10 01:16:09;;;;;;;6.80;3.63;;;;;;;;;;5035338;28;20190;-67
2022/10/10 01:18:49;;;;;;;5.33;3.77;;;;;;;;;;5035171;28;20213;-68
2022/10/10 01:21:32;;;;;;;7.27;3.33;;;;;;;;;;5054035;28;20829;-68
2022/10/10 01:24:14;;;;;;;5.63;3.10;;;;;;;;;;5038211;28;20675;-67
2022/10/10 01:26:40;;;;;;;4.57;2.90;;;;;;;;;;5056127;28;20212;-70
2022/10/10 01:29:22;;;;;;;5.60;2.97;;;;;;;;;;5056536;28;20567;-68
2022/10/10 01:31:50;;;;;;;4.57;3.27;;;;;;;;;;5056704;28;20201;-68
2022/10/10 01:34:22;;;;;;;5.50;3.47;;;;;;;;;;5055841;28;20206;-68
2022/10/10 01:36:51;;;;;;;5.50;3.20;;;;;;;;;;5038316;28;20183;-68
2022/10/10 01:39:23;;;;;;;5.10;3.20;;;;;;;;;;5056134;28;20551;-67
2022/10/10 01:41:56;;;;;;;4.47;2.63;;;;;;;;;;5056099;28;20548;-68
2022/10/10 01:44:22;;;;;;;9.30;3.17;;;;;;;;;;5056298;28;20204;-69
2022/10/10 01:46:48;;;;;;;3.50;2.80;;;;;;;;;;5055766;28;20257;-68
2022/10/10 01:49:14;;;;;;;4.10;2.77;;;;;;;;;;5037829;28;20174;-69
2022/10/10 01:51:40;;;;;;;5.90;2.97;;;;;;;;;;5037893;28;20175;-67
2022/10/10 01:54:25;;;;;;;5.17;2.60;;;;;;;;;;5037629;28;20560;-67
2022/10/10 01:57:01;;;;;;;6.40;2.73;;;;;;;;;;5055682;28;20266;-67
2022/10/10 01:59:45;;;;;;;3.40;2.33;;;;;;;;;;5037610;28;20170;-69
2022/10/10 02:02:16;;;;;;;3.63;2.43;;;;;;;;;;5056140;28;20166;-68
2022/10/10 02:04:53;;;;;;;3.17;2.60;;;;;;;;;;5055718;28;20742;-66
2022/10/10 02:07:24;;;;;;;4.37;2.53;;;;;;;;;;5037526;28;20198;-73
2022/10/10 02:09:52;;;;;;;6.17;3.00;;;;;;;;;;5037627;28;20214;-67
2022/10/10 02:12:18;;;;;;;3.20;2.57;;;;;;;;;;5055308;28;20175;-68
2022/10/10 02:14:45;;;;;;;5.57;2.73;;;;;;;;;;5055297;28;20202;-68
2022/10/10 02:17:13;;;;;;;4.00;2.53;;;;;;;;;;5037445;28;20179;-69
2022/10/10 02:19:44;;;;;;;4.93;3.27;;;;;;;;;;5055080;28;20255;-69
2022/10/10 02:22:10;;;;;;;5.80;3.07;;;;;;;;;;5055441;28;20166;-67
2022/10/10 02:24:36;;;;;;;5.20;2.87;;;;;;;;;;5055049;28;20202;-68
2022/10/10 02:27:04;;;;;;;6.37;2.33;;;;;;;;;;5055201;28;20253;-67
2022/10/10 02:29:33;;;;;;;4.97;2.90;;;;;;;;;;5055350;28;20654;-68
2022/10/10 02:32:10;;;;;;;5.03;2.90;;;;;;;;;;5036517;28;20178;-68
2022/10/10 02:34:38;;;;;;;6.67;2.80;;;;;;;;;;5054689;28;20194;-69
2022/10/10 02:37:06;;;;;;;4.33;2.37;;;;;;;;;;5054919;28;20185;-68
2022/10/10 02:39:34;;;;;;;3.67;3.10;;;;;;;;;;5054796;28;20187;-68
2022/10/10 02:42:00;;;;;;;5.43;2.67;;;;;;;;;;5036807;28;20178;-68
2022/10/10 02:44:26;;;;;;;4.00;2.70;;;;;;;;;;5054699;28;20201;-69
2022/10/10 02:46:52;;;;;;;5.37;3.03;;;;;;;;;;5054726;28;20651;-67
2022/10/10 02:49:29;;;;;;;5.80;2.83;;;;;;;;;;5054838;28;20569;-68
2022/10/10 02:51:56;;;;;;;4.47;3.03;;;;;;;;;;5054291;28;20236;-67
2022/10/10 02:54:22;;;;;;;6.30;3.10;;;;;;;;;;5074914;23;20222;-65
2022/10/10 02:56:47;;;;;;;3.43;2.40;;;;;;;;;;5035933;28;20259;-67
2022/10/10 02:59:13;;;;;;;3.93;3.30;;;;;;;;;;5035370;28;20183;-66
2022/10/10 03:01:39;;;;;;;3.93;2.90;;;;;;;;;;5017255;28;20215;-65
2022/10/10 03:04:05;;;;;;;4.13;3.00;;;;;;;;;;5035035;28;20214;-66
2022/10/10 03:06:31;;;;;;;3.80;3.20;;;;;;;;;;5017476;28;20183;-66
2022/10/10 03:08:57;;;;;;;5.67;3.10;;;;;;;;;;5035274;28;20175;-66
2022/10/10 03:11:23;;;;;;;3.87;2.90;;;;;;;;;;5035022;28;20533;-66
2022/10/10 03:13:49;;;;;;;4.50;2.80;;;;;;;;;;5017757;28;20663;-65
2022/10/10 03:16:15;;;;;;;3.80;3.30;;;;;;;;;;5017274;28;20242;-67
2022/10/10 03:18:41;;;;;;;4.97;3.07;;;;;;;;;;5035046;28;20211;-66
2022/10/10 03:21:07;;;;;;;9.50;3.10;;;;;;;;;;5034802;28;20214;-67
2022/10/10 03:23:34;;;;;;;6.50;3.13;;;;;;;;;;5034797;28;20198;-67
2022/10/10 03:26:00;;;;;;;3.90;3.03;;;;;;;;;;5016871;28;20195;-66
2022/10/10 03:28:26;;;;;;;5.53;3.50;;;;;;;;;;5017371;28;20536;-67
2022/10/10 03:30:52;;;;;;;5.83;3.60;;;;;;;;;;5035175;28;20182;-67
2022/10/10 03:33:18;;;;;;;3.10;2.80;;;;;;;;;;5034794;28;20225;-66
2022/10/10 03:35:44;;;;;;;4.10;3.00;;;;;;;;;;5034788;28;20199;-66
2022/10/10 03:38:11;;;;;;;5.47;3.40;;;;;;;;;;5016882;28;20252;-67
2022/10/10 03:40:41;;;;;;;6.53;3.20;;;;;;;;;;5034336;28;20213;-66
2022/10/10 03:43:07;;;;;;;4.63;2.90;;;;;;;;;;5035574;28;20572;-65
2022/10/10 03:45:33;;;;;;;3.97;2.97;;;;;;;;;;5034210;28;20191;-67
2022/10/10 03:47:59;;;;;;;5.37;2.87;;;;;;;;;;5034259;28;20257;-67
2022/10/10 03:50:25;;;;;;;5.57;2.90;;;;;;;;;;5016949;28;20186;-67
2022/10/10 03:52:51;;;;;;;6.87;3.43;;;;;;;;;;5016306;28;20186;-67
2022/10/10 03:55:17;;;;;;;6.60;3.00;;;;;;;;;;5016656;28;20222;-67
2022/10/10 03:57:43;;;;;;;8.43;3.70;;;;;;;;;;5016585;28;20662;-66
2022/10/10 04:00:09;;;;;;;4.70;3.70;;;;;;;;;;5016742;28;20203;-66
2022/10/10 04:02:35;;;;;;;5.90;3.63;;;;;;;;;;5034111;28;20167;-65
2022/10/10 04:05:02;;;;;;;5.97;3.50;;;;;;;;;;5034069;28;20217;-67
2022/10/10 04:07:28;;;;;;;8.67;3.90;;;;;;;;;;5034619;28;20194;-66
2022/10/10 04:09:54;;;;;;;6.20;3.83;;;;;;;;;;5034161;28;20179;-67
2022/10/10 04:12:20;;;;;;;5.20;3.30;;;;;;;;;;5016311;28;20187;-66
2022/10/10 04:14:46;;;;;;;5.93;3.90;;;;;;;;;;5034336;28;20694;-66
2022/10/10 04:17:12;;;;;;;4.47;3.60;;;;;;;;;;5034635;28;20179;-67
2022/10/10 04:19:38;;;;;;;4.53;3.30;;;;;;;;;;5015882;28;20226;-66
2022/10/10 04:22:04;;;;;;;4.73;3.67;;;;;;;;;;5016011;28;20183;-67
2022/10/10 04:24:30;;;;;;;6.73;3.90;;;;;;;;;;5015750;28;20209;-66
2022/10/10 04:26:55;;;;;;;3.53;3.17;;;;;;;;;;5033638;28;20640;-66
2022/10/10 04:29:21;;;;;;;4.23;3.00;;;;;;;;;;5033418;28;20179;-67
2022/10/10 04:31:47;;;;;;;7.83;3.50;;;;;;;;;;5034168;28;20208;-67
2022/10/10 04:34:14;;;;;;;5.43;3.43;;;;;;;;;;5034356;28;20637;-66
2022/10/10 04:36:40;;;;;;;4.63;3.30;;;;;;;;;;5034260;28;20167;-67
2022/10/10 04:39:06;;;;;;;8.47;3.50;;;;;;;;;;5033532;28;20233;-67
2022/10/10 04:41:32;;;;;;;6.17;3.70;;;;;;;;;;5015570;28;20206;-68
2022/10/10 04:43:58;;;;;;;8.60;3.33;;;;;;;;;;5033401;28;20207;-66
2022/10/10 04:46:24;;;;;;;9.33;3.97;;;;;;;;;;5015788;28;20183;-67
2022/10/10 04:48:50;;;;;;;4.20;3.40;;;;;;;;;;5033443;28;20225;-66
2022/10/10 04:51:16;;;;;;;8.40;3.87;;;;;;;;;;5033761;28;20183;-67
2022/10/10 04:53:42;;;;;;;6.87;3.77;;;;;;;;;;5033830;28;20186;-67
2022/10/10 04:56:08;;;;;;;6.90;4.23;;;;;;;;;;5035115;28;20211;-67
2022/10/10 04:58:34;;;;;;;6.53;3.80;;;;;;;;;;5037470;28;20187;-67
2022/10/10 05:01:00;;;;;;;6.23;4.30;;;;;;;;;;5037365;28;20290;-67
2022/10/10 05:03:26;;;;;;;5.53;3.80;;;;;;;;;;5037253;28;20614;-66
2022/10/10 05:05:52;;;;;;;4.87;3.63;;;;;;;;;;5037136;28;20195;-66
2022/10/10 05:08:18;;;;;;;6.03;3.83;;;;;;;;;;5019495;28;20186;-67
2022/10/10 05:10:45;;;;;;;6.43;3.93;;;;;;;;;;5037251;28;20274;-67
2022/10/10 05:13:11;;;;;;;4.27;3.50;;;;;;;;;;5019325;28;20195;-66
2022/10/10 05:15:38;;;;;;;9.93;4.33;;;;;;;;;;5036683;28;20201;-68
2022/10/10 05:18:04;;;;;;;6.97;4.13;;;;;;;;;;5036871;28;20194;-67
2022/10/10 05:20:32;;;;;;;7.00;4.07;;;;;;;;;;5036766;28;20214;-67
2022/10/10 05:22:58;;;;;;;4.50;3.67;;;;;;;;;;5019104;28;20179;-66
2022/10/10 05:25:24;;;;;;;4.13;3.73;;;;;;;;;;5037150;28;20682;-66
2022/10/10 05:27:50;;;;;;;5.47;3.87;;;;;;;;;;5036804;28;20175;-66
2022/10/10 05:30:16;;;;;;;7.77;4.57;;;;;;;;;;5036974;28;20183;-66
2022/10/10 05:32:42;;;;;;;15.83;4.47;;;;;;;;;;5037038;28;20647;-67
2022/10/10 05:35:08;;;;;;;7.37;4.50;;;;;;;;;;5036410;28;20245;-66
2022/10/10 05:37:34;;;;;;;9.73;5.10;;;;;;;;;;5019448;28;20242;-67
2022/10/10 05:40:00;;;;;;;9.93;4.10;;;;;;;;;;5036672;28;20203;-67
2022/10/10 05:42:26;;;;;;;7.50;4.33;;;;;;;;;;5036625;28;20179;-67
2022/10/10 05:44:52;;;;;;;9.20;4.43;;;;;;;;;;5036621;28;20274;-65
2022/10/10 05:47:18;;;;;;;7.57;4.80;;;;;;;;;;5036673;28;20222;-67
2022/10/10 05:49:44;;;;;;;12.77;5.33;;;;;;;;;;5036320;28;20179;-68
2022/10/10 05:52:10;;;;;;;8.33;4.40;;;;;;;;;;5036834;28;20179;-68
2022/10/10 05:54:36;;;;;;;7.40;4.50;;;;;;;;;;5036486;28;20214;-66
2022/10/10 05:57:02;;;;;;;11.33;4.97;;;;;;;;;;5018361;28;20187;-67
2022/10/10 05:59:28;;;;;;;7.30;4.90;;;;;;;;;;5036592;28;20207;-66
2022/10/10 06:01:54;;;;;;;6.40;4.53;;;;;;;;;;5018660;28;20673;-66
2022/10/10 06:04:21;;;;;;;7.83;4.67;;;;;;;;;;5036318;28;20199;-67
2022/10/10 06:06:47;;;;;;;8.07;5.00;;;;;;;;;;5018084;28;20181;-67
2022/10/10 06:09:13;;;;;;;12.53;5.13;;;;;;;;;;5018353;28;20183;-67
2022/10/10 06:11:39;;;;;;;11.60;6.33;;;;;;;;;;5036195;28;20179;-67
2022/10/10 06:14:05;;;;;;;10.30;6.33;;;;;;;;;;5035876;28;20183;-66
2022/10/10 06:16:31;;;;;;;13.87;6.43;;;;;;;;;;5036120;28;20194;-65
2022/10/10 06:18:57;;;;;;;11.43;6.90;;;;;;;;;;5036237;28;20186;-67
2022/10/10 06:21:23;;;;;;;15.97;8.27;;;;;;;;;;5036026;28;20667;-70
2022/10/10 06:23:49;;;;;;;19.73;11.00;;;;;;;;;;5036053;28;20186;-67
2022/10/10 06:26:15;;;;;;;23.77;10.93;;;;;;;;;;5035470;28;20191;-66
2022/10/10 06:28:41;;;;;;;23.77;12.60;;;;;;;;;;5017664;28;20184;-66
2022/10/10 06:31:08;;;;;;;26.47;12.07;;;;;;;;;;5035739;28;20527;-66
2022/10/10 06:33:36;;;;;;;31.33;16.37;;;;;;;;;;5017733;28;20191;-66
2022/10/10 06:36:04;;;;;;;30.93;15.97;;;;;;;;;;5017343;28;20199;-67
2022/10/10 06:38:30;;;;;;;27.87;14.93;;;;;;;;;;5035002;28;20179;-68
2022/10/10 06:41:00;;;;;;;25.33;14.23;;;;;;;;;;5035252;28;20234;-68
2022/10/10 06:43:26;;;;;;;22.13;12.87;;;;;;;;;;5035284;28;20171;-67
2022/10/10 06:45:52;;;;;;;22.07;11.03;;;;;;;;;;5034921;28;20282;-66
2022/10/10 06:48:18;;;;;;;20.33;9.67;;;;;;;;;;5034849;28;20182;-66
2022/10/10 06:50:54;;;;;;;22.83;10.63;;;;;;;;;;5034637;28;20187;-65
2022/10/10 06:53:20;;;;;;;11.37;8.17;;;;;;;;;;5034845;28;20564;-65
2022/10/10 06:55:46;;;;;;;13.83;7.83;;;;;;;;;;5017173;28;20284;-65
2022/10/10 06:58:13;;;;;;;16.40;7.57;;;;;;;;;;5034836;28;20201;-66
2022/10/10 07:00:39;;;;;;;16.60;7.80;;;;;;;;;;5034325;28;20286;-66
2022/10/10 07:03:05;;;;;;;20.87;8.17;;;;;;;;;;5034293;28;20243;-67
2022/10/10 07:05:31;;;;;;;17.67;8.23;;;;;;;;;;5034290;28;20201;-66
2022/10/10 07:07:57;;;;;;;18.37;7.80;;;;;;;;;;5034259;28;20554;-66
2022/10/10 07:10:23;;;;;;;20.63;7.97;;;;;;;;;;5033997;28;20183;-65
2022/10/10 07:12:49;;;;;;;17.87;8.37;;;;;;;;;;5033923;28;20668;-65
2022/10/10 07:15:15;;;;;;;15.33;6.87;;;;;;;;;;5033850;28;20238;-66
2022/10/10 07:17:41;;;;;;;17.77;7.90;;;;;;;;;;5033758;28;20179;-66
2022/10/10 07:20:07;;;;;;;18.40;8.27;;;;;;;;;;5033361;28;20250;-65
2022/10/10 07:22:33;;;;;;;21.20;8.30;;;;;;;;;;5015906;28;20710;-66
2022/10/10 07:24:59;;;;;;;17.73;8.40;;;;;;;;;;5033702;28;20257;-65
2022/10/10 07:27:25;;;;;;;19.20;8.20;;;;;;;;;;5033818;28;20172;-65
2022/10/10 07:29:51;;;;;;;24.00;9.20;;;;;;;;;;5033533;28;20190;-66
2022/10/10 07:32:17;;;;;;;25.53;10.57;;;;;;;;;;5033639;28;20179;-67
2022/10/10 07:34:43;;;;;;;19.30;9.70;;;;;;;;;;5033343;28;20195;-66
2022/10/10 07:37:09;;;;;;;19.07;8.50;;;;;;;;;;5033351;28;20207;-66
2022/10/10 07:39:35;;;;;;;20.77;8.90;;;;;;;;;;5015975;28;20183;-66
2022/10/10 07:42:01;;;;;;;16.07;8.93;;;;;;;;;;5015897;28;20175;-66
2022/10/10 07:44:27;;;;;;;21.37;9.23;;;;;;;;;;5015518;28;20191;-67
2022/10/10 07:46:53;;;;;;;23.80;10.07;;;;;;;;;;5033366;28;20175;-66
2022/10/10 07:49:19;;;;;;;21.00;10.43;;;;;;;;;;5015554;28;20655;-66
2022/10/10 07:51:44;;;;;;;21.30;10.33;;;;;;;;;;5033484;28;20639;-66
2022/10/10 07:54:10;;;;;;;20.27;10.57;;;;;;;;;;5033207;28;20186;-66
2022/10/10 07:56:36;;;;;;;17.87;9.70;;;;;;;;;;5033546;28;20168;-66
2022/10/10 07:59:02;;;;;;;34.37;10.17;;;;;;;;;;5033490;28;20179;-66
2022/10/10 08:01:28;;;;;;;19.80;9.80;;;;;;;;;;5033211;28;20679;-67
2022/10/10 08:03:57;;;;;;;20.67;9.03;;;;;;;;;;5033591;28;20186;-67
2022/10/10 08:06:23;;;;;;;16.93;8.47;;;;;;;;;;5033156;28;20179;-66
2022/10/10 08:08:50;;;;;;;11.77;8.53;;;;;;;;;;5033336;28;20226;-66
2022/10/10 08:11:17;;;;;;;14.43;8.40;;;;;;;;;;5015520;28;20179;-69
2022/10/10 08:13:43;;;;;;;13.37;7.67;;;;;;;;;;5015498;28;20210;-66
2022/10/10 08:16:09;;;;;;;14.23;8.03;;;;;;;;;;5015353;28;20214;-66
2022/10/10 08:18:35;;;;;;;15.03;7.93;;;;;;;;;;5033334;28;20175;-66
2022/10/10 08:21:02;;;;;;;17.10;7.57;;;;;;;;;;5033362;28;20316;-66
2022/10/10 08:23:28;;;;;;;15.47;7.70;;;;;;;;;;5015370;28;20183;-67
2022/10/10 08:25:54;;;;;;;14.73;7.57;;;;;;;;;;5032873;28;20248;-66
2022/10/10 08:28:20;;;;;;;9.93;6.10;;;;;;;;;;5015410;28;20179;-66
2022/10/10 08:30:46;;;;;;;13.40;7.17;;;;;;;;;;5016175;28;20704;-66
2022/10/10 08:33:12;;;;;;;15.60;6.97;;;;;;;;;;5037277;28;20181;-66
2022/10/10 08:35:38;;;;;;;11.40;6.63;;;;;;;;;;5037071;28;20202;-65
2022/10/10 08:38:04;;;;;;;12.17;6.93;;;;;;;;;;5037101;28;20183;-65
2022/10/10 08:40:31;;;;;;;13.57;7.93;;;;;;;;;;5019173;28;20210;-65
2022/10/10 08:42:57;;;;;;;13.00;7.43;;;;;;;;;;5018972;28;20270;-65
2022/10/10 08:45:27;;;;;;;12.73;7.80;;;;;;;;;;5018951;28;20199;-65
2022/10/10 08:47:56;;;;;;;16.13;7.77;;;;;;;;;;5018992;28;20171;-65
2022/10/10 08:50:28;;;;;;;13.87;7.67;;;;;;;;;;5018842;28;20187;-65
2022/10/10 08:52:54;;;;;;;11.53;8.00;;;;;;;;;;5036647;28;20187;-65
2022/10/10 08:55:46;;;;;;;12.33;7.07;;;;;;;;;;5036824;28;20267;-65
2022/10/10 08:58:18;;;;;;;11.77;6.57;;;;;;;;;;5014872;28;20195;-65
2022/10/10 09:00:46;;;;;;;8.20;5.93;;;;;;;;;;5037339;28;20204;-65
2022/10/10 09:03:19;;;;;;;8.13;5.20;;;;;;;;;;5036666;28;20631;-65
2022/10/10 09:05:55;;;;;;;13.60;5.97;;;;;;;;;;5062506;23;20202;-68
2022/10/10 09:08:33;;;;;;;10.83;5.67;;;;;;;;;;5038428;28;20170;-69
2022/10/10 09:11:02;;;;;;;11.20;5.83;;;;;;;;;;5056285;28;20687;-69
2022/10/10 09:13:47;;;;;;;10.03;5.03;;;;;;;;;;5056609;28;20179;-69
2022/10/10 09:16:37;;;;;;;7.07;4.97;;;;;;;;;;5056225;28;20199;-69
2022/10/10 09:19:11;;;;;;;17.53;5.33;;;;;;;;;;4984948;28;20240;-69
2022/10/10 09:21:38;;;;;;;10.43;4.70;;;;;;;;;;5056552;28;20197;-69
2022/10/10 09:24:19;;;;;;;10.37;5.37;;;;;;;;;;5056253;28;20171;-68
2022/10/10 09:26:47;;;;;;;8.47;5.83;;;;;;;;;;5055988;28;20201;-69
2022/10/10 09:29:13;;;;;;;9.77;5.30;;;;;;;;;;5056054;28;20213;-70
2022/10/10 09:31:44;;;;;;;10.87;5.10;;;;;;;;;;5056492;28;20214;-70
2022/10/10 09:34:31;;;;;;;9.57;5.20;;;;;;;;;;5055860;28;20228;-69
2022/10/10 09:37:01;;;;;;;12.10;5.17;;;;;;;;;;5055351;28;20694;-68
2022/10/10 09:39:35;;;;;;;11.00;4.70;;;;;;;;;;5037575;28;20273;-68
2022/10/10 09:42:02;;;;;;;9.47;4.43;;;;;;;;;;5055196;28;20241;-69
2022/10/10 09:44:28;;;;;;;11.60;5.07;;;;;;;;;;5055916;28;20194;-69
2022/10/10 09:46:54;;;;;;;9.50;4.70;;;;;;;;;;5055262;28;20697;-68
2022/10/10 09:49:20;;;;;;;13.27;5.47;;;;;;;;;;5055345;28;20187;-68
2022/10/10 09:51:47;;;;;;;6.93;4.77;;;;;;;;;;5055389;28;20667;-69
2022/10/10 09:54:14;;;;;;;11.10;4.53;;;;;;;;;;5055510;28;20182;-68
2022/10/10 09:56:42;;;;;;;13.17;4.23;;;;;;;;;;5055672;28;20574;-69
2022/10/10 09:59:28;;;;;;;10.30;5.13;;;;;;;;;;5037298;28;20191;-68
2022/10/10 10:02:01;;;;;;;14.67;4.83;;;;;;;;;;5055462;28;20296;-68
2022/10/10 10:04:32;;;;;;;7.07;4.67;;;;;;;;;;5055088;28;20178;-68
2022/10/10 10:07:24;;;;;;;10.57;7.03;;;;;;;;;;5055030;28;20591;-69
2022/10/10 10:09:51;;;;;;;8.07;5.30;;;;;;;;;;5049566;28;20194;-68
2022/10/10 10:12:24;;;;;;;9.27;5.00;;;;;;;;;;5036915;28;20186;-68
2022/10/10 10:14:52;;;;;;;8.43;4.53;;;;;;;;;;5055133;28;20202;-68
2022/10/10 10:17:22;;;;;;;11.70;9.27;;;;;;;;;;5054780;28;20203;-69
2022/10/10 10:19:48;;;;;;;13.13;6.63;;;;;;;;;;5040341;28;20269;-68
2022/10/10 10:22:26;;;;;;;9.27;4.27;;;;;;;;;;5058797;28;20175;-68
2022/10/10 10:24:52;;;;;;;7.43;4.43;;;;;;;;;;5059207;28;20630;-68
2022/10/10 10:27:19;;;;;;;11.90;4.37;;;;;;;;;;5040423;28;20202;-69
2022/10/10 10:29:49;;;;;;;11.33;5.23;;;;;;;;;;5055393;28;20257;-68
2022/10/10 10:32:25;;;;;;;7.20;3.70;;;;;;;;;;5037548;28;20585;-69
2022/10/10 10:34:57;;;;;;;10.80;4.20;;;;;;;;;;5055300;28;20619;-69
2022/10/10 10:37:35;;;;;;;11.43;5.63;;;;;;;;;;5036754;28;20209;-68
2022/10/10 10:40:13;;;;;;;10.57;6.13;;;;;;;;;;5054732;28;20242;-68
2022/10/10 10:42:42;;;;;;;10.40;4.70;;;;;;;;;;5036806;28;20181;-69
2022/10/10 10:45:16;;;;;;;14.67;6.37;;;;;;;;;;5055014;28;20175;-68
2022/10/10 10:47:54;;;;;;;9.07;4.87;;;;;;;;;;5054648;28;20286;-68
2022/10/10 10:50:49;;;;;;;6.43;4.57;;;;;;;;;;5054539;28;20174;-69
2022/10/10 10:53:36;;;;;;;16.60;5.13;;;;;;;;;;4949320;28;20529;-68
2022/10/10 10:56:22;;;;;;;10.03;5.17;;;;;;;;;;5054297;28;20198;-68
2022/10/10 10:59:06;;;;;;;8.10;4.90;;;;;;;;;;5054672;28;20560;-68
2022/10/10 11:01:32;;;;;;;7.93;4.57;;;;;;;;;;5054138;28;20202;-68
2022/10/10 11:04:03;;;;;;;8.73;4.37;;;;;;;;;;5036322;28;20189;-68
2022/10/10 11:06:51;;;;;;;7.60;4.70;;;;;;;;;;5054020;28;20217;-68
2022/10/10 11:09:21;;;;;;;10.40;4.27;;;;;;;;;;5036349;28;20561;-68
2022/10/10 11:11:53;;;;;;;11.80;6.57;;;;;;;;;;5055510;28;20713;-68
2022/10/10 11:14:25;;;;;;;13.57;6.67;;;;;;;;;;5055222;28;20209;-69
2022/10/10 11:16:53;;;;;;;13.50;5.17;;;;;;;;;;5054656;28;20242;-68
2022/10/10 11:19:38;;;;;;;12.23;5.30;;;;;;;;;;5036800;28;20643;-68
2022/10/10 11:22:09;;;;;;;10.10;5.27;;;;;;;;;;5054016;28;20189;-68
2022/10/10 11:24:35;;;;;;;11.70;4.70;;;;;;;;;;5053712;28;20269;-68
2022/10/10 11:27:03;;;;;;;10.67;6.83;;;;;;;;;;5053984;28;20271;-69
2022/10/10 11:29:33;;;;;;;19.73;13.03;;;;;;;;;;5053807;28;20253;-69
2022/10/10 11:32:05;;;;;;;11.13;6.63;;;;;;;;;;5053644;28;20240;-69
2022/10/10 11:34:35;;;;;;;9.83;4.60;;;;;;;;;;5053706;28;20197;-69
2022/10/10 11:37:04;;;;;;;14.13;4.53;;;;;;;;;;5053721;28;20255;-69
2022/10/10 11:39:36;;;;;;;13.37;3.83;;;;;;;;;;5053771;28;20643;-69
2022/10/10 11:42:05;;;;;;;14.70;11.03;;;;;;;;;;5035745;28;20183;-68
2022/10/10 11:44:38;;;;;;;14.70;5.60;;;;;;;;;;5053694;28;20189;-69
2022/10/10 11:47:14;;;;;;;21.90;12.50;;;;;;;;;;5053364;28;20197;-68
2022/10/10 11:49:48;;;;;;;11.63;5.53;;;;;;;;;;5035367;28;20769;-69
2022/10/10 11:52:13;;;;;;;18.07;9.00;;;;;;;;;;5035457;28;20666;-68
2022/10/10 11:54:43;;;;;;;18.77;9.67;;;;;;;;;;5035355;28;20174;-69
2022/10/10 11:57:16;;;;;;;25.23;14.17;;;;;;;;;;5035277;28;20667;-69
2022/10/10 11:59:51;;;;;;;19.27;12.97;;;;;;;;;;5053963;28;20300;-69
2022/10/10 12:02:18;;;;;;;43.13;34.07;;;;;;;;;;5053202;28;20170;-69
2022/10/10 12:04:44;;;;;;;18.30;9.60;;;;;;;;;;5053202;28;20178;-68
2022/10/10 12:07:18;;;;;;;11.90;7.10;;;;;;;;;;5052848;28;20218;-68
2022/10/10 12:09:46;;;;;;;10.40;5.10;;;;;;;;;;5053517;28;20340;-69
2022/10/10 12:12:24;;;;;;;9.90;4.80;;;;;;;;;;5053181;28;20210;-68
2022/10/10 12:14:55;;;;;;;12.77;4.50;;;;;;;;;;5053057;28;20193;-68
2022/10/10 12:17:24;;;;;;;8.97;4.03;;;;;;;;;;5035022;28;20681;-69
2022/10/10 12:19:51;;;;;;;12.30;4.70;;;;;;;;;;5034903;28;20555;-69
2022/10/10 12:22:27;;;;;;;7.83;3.03;;;;;;;;;;5035047;28;20170;-69
2022/10/10 12:25:12;;;;;;;8.07;3.17;;;;;;;;;;5053008;28;20170;-68
2022/10/10 12:27:45;;;;;;;9.87;4.00;;;;;;;;;;5052760;28;20200;-68
2022/10/10 12:30:15;;;;;;;8.77;3.77;;;;;;;;;;5052980;28;20170;-69
2022/10/10 12:32:42;;;;;;;13.83;4.63;;;;;;;;;;5053066;28;20202;-69
2022/10/10 12:35:27;;;;;;;10.77;3.80;;;;;;;;;;5052791;28;20228;-68
2022/10/10 12:38:06;;;;;;;17.57;5.77;;;;;;;;;;5052673;28;20205;-67
2022/10/10 12:40:32;;;;;;;10.87;3.73;;;;;;;;;;5052678;28;20271;-68
2022/10/10 12:43:00;;;;;;;12.83;4.37;;;;;;;;;;5034929;28;20178;-66
2022/10/10 12:45:29;;;;;;;14.90;6.37;;;;;;;;;;5052773;28;20548;-68
2022/10/10 12:47:56;;;;;;;10.53;4.10;;;;;;;;;;5034776;28;20555;-66
2022/10/10 12:50:25;;;;;;;12.73;4.27;;;;;;;;;;5034921;28;20182;-67
2022/10/10 12:52:54;;;;;;;15.70;6.33;;;;;;;;;;5034917;28;20206;-68
2022/10/10 12:55:24;;;;;;;10.13;3.73;;;;;;;;;;5034738;28;20296;-67
2022/10/10 12:57:52;;;;;;;12.40;4.03;;;;;;;;;;5034529;28;20206;-67
2022/10/10 13:00:23;;;;;;;12.90;5.50;;;;;;;;;;5034663;28;20753;-67
2022/10/10 13:02:56;;;;;;;10.57;4.13;;;;;;;;;;5052671;28;20520;-68
2022/10/10 13:05:26;;;;;;;11.30;4.63;;;;;;;;;;5053270;28;20217;-68
2022/10/10 13:07:53;;;;;;;11.80;6.37;;;;;;;;;;5052704;28;20211;-68
2022/10/10 13:10:28;;;;;;;10.03;5.23;;;;;;;;;;5034752;28;20185;-68
2022/10/10 13:13:02;;;;;;;10.93;5.53;;;;;;;;;;5052444;28;20178;-68
2022/10/10 13:15:29;;;;;;;10.87;4.73;;;;;;;;;;5034773;28;20182;-68
2022/10/10 13:17:55;;;;;;;11.87;4.47;;;;;;;;;;5036930;28;20688;-68
2022/10/10 13:20:50;;;;;;;9.13;3.20;;;;;;;;;;5037991;28;20202;-69
2022/10/10 13:23:16;;;;;;;14.63;3.00;;;;;;;;;;5031133;28;20194;-67
2022/10/10 13:25:45;;;;;;;8.43;3.60;;;;;;;;;;5037830;28;20669;-67
2022/10/10 13:28:18;;;;;;;11.80;5.73;;;;;;;;;;5037911;28;20178;-68
2022/10/10 13:30:45;;;;;;;15.03;6.33;;;;;;;;;;5055751;28;20187;-68
2022/10/10 13:33:15;;;;;;;15.40;6.47;;;;;;;;;;5056270;28;20556;-68
2022/10/10 13:35:41;;;;;;;12.40;5.33;;;;;;;;;;5055645;28;20182;-68
2022/10/10 13:38:08;;;;;;;14.37;8.80;;;;;;;;;;5055957;28;20186;-68
2022/10/10 13:40:34;;;;;;;11.13;5.07;;;;;;;;;;5037656;28;20671;-69
2022/10/10 13:43:00;;;;;;;11.43;3.33;;;;;;;;;;5055630;28;20175;-68
2022/10/10 13:45:31;;;;;;;10.50;3.47;;;;;;;;;;5037684;28;20550;-68
2022/10/10 13:47:57;;;;;;;13.17;6.30;;;;;;;;;;5037611;28;20182;-69
2022/10/10 13:50:55;;;;;;;10.00;4.10;;;;;;;;;;5037593;28;20228;-69
2022/10/10 13:53:30;;;;;;;12.50;3.50;;;;;;;;;;4990890;28;20201;-68
2022/10/10 13:56:01;;;;;;;14.90;3.93;;;;;;;;;;5055865;28;20240;-68
2022/10/10 13:58:30;;;;;;;7.40;3.37;;;;;;;;;;5055369;28;20526;-68
2022/10/10 14:01:02;;;;;;;10.63;4.27;;;;;;;;;;5055210;28;20201;-68
2022/10/10 14:03:29;;;;;;;8.83;3.70;;;;;;;;;;5037336;28;20179;-68
2022/10/10 14:05:55;;;;;;;11.13;3.67;;;;;;;;;;5037119;28;20623;-69
2022/10/10 14:08:25;;;;;;;10.27;3.80;;;;;;;;;;5037206;28;20658;-69
2022/10/10 14:10:55;;;;;;;13.60;4.00;;;;;;;;;;5055362;28;20673;-69
2022/10/10 14:13:21;;;;;;;10.17;4.73;;;;;;;;;;5055337;28;20261;-69
2022/10/10 14:15:47;;;;;;;10.70;4.00;;;;;;;;;;5055148;28;20208;-68
2022/10/10 14:18:17;;;;;;;11.03;5.13;;;;;;;;;;5054967;28;20595;-68
2022/10/10 14:20:44;;;;;;;11.13;4.00;;;;;;;;;;5054799;28;20638;-69
2022/10/10 14:23:10;;;;;;;14.07;5.10;;;;;;;;;;5054898;28;20210;-68
2022/10/10 14:25:43;;;;;;;10.17;4.90;;;;;;;;;;5054800;28;20209;-69
2022/10/10 14:28:15;;;;;;;12.27;3.97;;;;;;;;;;5053961;28;20178;-68
2022/10/10 14:30:41;;;;;;;14.47;6.40;;;;;;;;;;5055008;28;20187;-69
2022/10/10 14:33:11;;;;;;;21.20;11.00;;;;;;;;;;5036809;28;20336;-68
2022/10/10 14:35:37;;;;;;;7.70;3.40;;;;;;;;;;5054623;28;20179;-68
2022/10/10 14:38:03;;;;;;;12.57;4.40;;;;;;;;;;5054691;28;20185;-69
2022/10/10 14:40:30;;;;;;;9.77;4.70;;;;;;;;;;5054550;28;20595;-68
2022/10/10 14:42:56;;;;;;;15.03;4.47;;;;;;;;;;5054488;28;20232;-68
2022/10/10 14:45:22;;;;;;;7.43;3.17;;;;;;;;;;5054428;28;20188;-68
2022/10/10 14:47:48;;;;;;;8.07;3.47;;;;;;;;;;5054279;28;20193;-68